sensor_id;sensor_type;location;lat;lon;timestamp;pressure;altitude;pressure_sealevel;temperature;humidity
28354;BME280;15603;50.878;8.036;2022-07-05T00:00:51;146759.53;;;14.77;83.05
28354;BME280;15603;50.878;8.036;2022-07-05T00:03:18;146724.19;;;14.62;83.83
28354;BME280;15603;50.878;8.036;2022-07-05T00:05:46;146733.94;;;14.66;83.73
28354;BME280;15603;50.878;8.036;2022-07-05T00:08:13;146714.44;;;14.58;83.47
28354;BME280;15603;50.878;8.036;2022-07-05T00:10:40;146677.81;;;14.43;83.79
28354;BME280;15603;50.878;8.036;2022-07-05T00:13:08;146638.84;;;14.26;84.25
28354;BME280;15603;50.878;8.036;2022-07-05T00:15:35;146663.22;;;14.37;85.56
28354;BME280;15603;50.878;8.036;2022-07-05T00:18:03;146636.41;;;14.25;84.75
28354;BME280;15603;50.878;8.036;2022-07-05T00:20:30;146651.00;;;14.31;84.48
28354;BME280;15603;50.878;8.036;2022-07-05T00:22:58;146634.00;;;14.24;84.93
28354;BME280;15603;50.878;8.036;2022-07-05T00:25:25;146631.53;;;14.23;85.04
28354;BME280;15603;50.878;8.036;2022-07-05T00:27:52;146512.16;;;13.73;85.31
28354;BME280;15603;50.878;8.036;2022-07-05T00:30:22;146526.75;;;13.79;84.82
28354;BME280;15603;50.878;8.036;2022-07-05T00:32:50;146634.00;;;14.24;84.82
28354;BME280;15603;50.878;8.036;2022-07-05T00:35:17;146573.03;;;13.99;85.71
28354;BME280;15603;50.878;8.036;2022-07-05T00:37:44;146569.38;;;13.97;85.87
28354;BME280;15603;50.878;8.036;2022-07-05T00:40:12;146556.00;;;13.91;86.91
28354;BME280;15603;50.878;8.036;2022-07-05T00:42:39;146548.69;;;13.88;85.93
28354;BME280;15603;50.878;8.036;2022-07-05T00:45:07;146534.09;;;13.82;86.65
28354;BME280;15603;50.878;8.036;2022-07-05T00:47:35;146538.94;;;13.84;87.20
28354;BME280;15603;50.878;8.036;2022-07-05T00:50:03;146523.09;;;13.78;86.52
28354;BME280;15603;50.878;8.036;2022-07-05T00:52:30;146520.69;;;13.77;86.65
28354;BME280;15603;50.878;8.036;2022-07-05T00:54:58;146537.75;;;13.84;86.39
28354;BME280;15603;50.878;8.036;2022-07-05T00:57:26;146504.81;;;13.70;86.37
28354;BME280;15603;50.878;8.036;2022-07-05T00:59:53;146482.94;;;13.61;87.52
28354;BME280;15603;50.878;8.036;2022-07-05T01:02:20;146474.41;;;13.57;88.03
28354;BME280;15603;50.878;8.036;2022-07-05T01:04:50;146458.53;;;13.50;88.10
28354;BME280;15603;50.878;8.036;2022-07-05T01:07:21;146480.47;;;13.60;87.03
28354;BME280;15603;50.878;8.036;2022-07-05T01:09:48;146456.13;;;13.49;87.87
28354;BME280;15603;50.878;8.036;2022-07-05T01:12:16;146469.53;;;13.55;87.69
28354;BME280;15603;50.878;8.036;2022-07-05T01:14:44;146448.81;;;13.46;89.25
28354;BME280;15603;50.878;8.036;2022-07-05T01:17:13;146456.13;;;13.49;88.58
28354;BME280;15603;50.878;8.036;2022-07-05T01:19:40;146429.34;;;13.38;87.60
28354;BME280;15603;50.878;8.036;2022-07-05T01:22:26;146406.16;;;13.28;89.34
28354;BME280;15603;50.878;8.036;2022-07-05T01:24:54;146406.16;;;13.28;89.35
28354;BME280;15603;50.878;8.036;2022-07-05T01:27:21;146436.63;;;13.41;88.42
28354;BME280;15603;50.878;8.036;2022-07-05T01:29:49;146417.13;;;13.33;88.48
28354;BME280;15603;50.878;8.036;2022-07-05T01:32:16;146412.28;;;13.31;89.01
28354;BME280;15603;50.878;8.036;2022-07-05T01:34:44;146389.09;;;13.21;89.73
28354;BME280;15603;50.878;8.036;2022-07-05T01:37:12;146395.16;;;13.24;89.29
28354;BME280;15603;50.878;8.036;2022-07-05T01:39:39;146392.75;;;13.23;89.46
28354;BME280;15603;50.878;8.036;2022-07-05T01:42:06;146375.69;;;13.15;89.90
28354;BME280;15603;50.878;8.036;2022-07-05T01:44:34;146307.50;;;12.87;89.45
28354;BME280;15603;50.878;8.036;2022-07-05T01:47:06;146319.69;;;12.92;90.29
28354;BME280;15603;50.878;8.036;2022-07-05T01:49:41;146381.78;;;13.18;90.58
28354;BME280;15603;50.878;8.036;2022-07-05T01:52:11;146353.78;;;13.06;91.82
28354;BME280;15603;50.878;8.036;2022-07-05T01:54:40;146326.97;;;12.95;90.26
28354;BME280;15603;50.878;8.036;2022-07-05T01:57:09;146407.34;;;13.29;89.61
28354;BME280;15603;50.878;8.036;2022-07-05T01:59:36;146370.84;;;13.13;91.13
28354;BME280;15603;50.878;8.036;2022-07-05T02:02:05;146324.56;;;12.94;90.97
28354;BME280;15603;50.878;8.036;2022-07-05T02:04:33;146358.63;;;13.08;90.48
28354;BME280;15603;50.878;8.036;2022-07-05T02:07:08;146369.63;;;13.13;90.35
28354;BME280;15603;50.878;8.036;2022-07-05T02:09:37;146345.25;;;13.03;91.13
28354;BME280;15603;50.878;8.036;2022-07-05T02:12:05;146322.13;;;12.93;90.63
28354;BME280;15603;50.878;8.036;2022-07-05T02:14:33;146319.69;;;12.92;91.25
28354;BME280;15603;50.878;8.036;2022-07-05T02:17:02;146314.84;;;12.90;91.20
28354;BME280;15603;50.878;8.036;2022-07-05T02:19:31;146309.97;;;12.88;91.28
28354;BME280;15603;50.878;8.036;2022-07-05T02:21:58;146309.97;;;12.88;91.39
28354;BME280;15603;50.878;8.036;2022-07-05T02:24:28;146302.66;;;12.85;91.38
28354;BME280;15603;50.878;8.036;2022-07-05T02:27:16;146249.06;;;12.62;91.30
28354;BME280;15603;50.878;8.036;2022-07-05T02:29:44;146280.72;;;12.75;91.54
28354;BME280;15603;50.878;8.036;2022-07-05T02:32:12;146271.00;;;12.71;92.30
28354;BME280;15603;50.878;8.036;2022-07-05T02:34:40;146250.34;;;12.63;92.15
28354;BME280;15603;50.878;8.036;2022-07-05T02:37:08;146320.91;;;12.92;91.29
28354;BME280;15603;50.878;8.036;2022-07-05T02:39:35;146278.31;;;12.74;92.72
28354;BME280;15603;50.878;8.036;2022-07-05T02:42:04;146263.72;;;12.68;91.45
28354;BME280;15603;50.878;8.036;2022-07-05T02:44:31;146257.59;;;12.66;91.86
28354;BME280;15603;50.878;8.036;2022-07-05T02:46:59;146256.41;;;12.65;92.65
28354;BME280;15603;50.878;8.036;2022-07-05T02:49:28;146229.63;;;12.54;92.85
28354;BME280;15603;50.878;8.036;2022-07-05T02:51:56;146217.44;;;12.49;93.76
28354;BME280;15603;50.878;8.036;2022-07-05T02:54:24;146207.69;;;12.45;93.33
28354;BME280;15603;50.878;8.036;2022-07-05T02:56:52;146217.44;;;12.49;94.25
28354;BME280;15603;50.878;8.036;2022-07-05T02:59:20;146211.34;;;12.46;93.54
28354;BME280;15603;50.878;8.036;2022-07-05T03:01:48;146201.63;;;12.42;94.23
28354;BME280;15603;50.878;8.036;2022-07-05T03:04:17;146191.91;;;12.38;94.56
28354;BME280;15603;50.878;8.036;2022-07-05T03:06:51;146201.63;;;12.42;94.23
28354;BME280;15603;50.878;8.036;2022-07-05T03:09:22;146178.50;;;12.32;94.01
28354;BME280;15603;50.878;8.036;2022-07-05T03:11:49;146171.19;;;12.29;94.25
28354;BME280;15603;50.878;8.036;2022-07-05T03:14:17;146183.38;;;12.34;94.23
28354;BME280;15603;50.878;8.036;2022-07-05T03:16:46;146177.31;;;12.32;94.69
28354;BME280;15603;50.878;8.036;2022-07-05T03:19:14;146167.53;;;12.28;93.83
28354;BME280;15603;50.878;8.036;2022-07-05T03:21:41;146182.16;;;12.34;93.28
28354;BME280;15603;50.878;8.036;2022-07-05T03:24:09;146154.19;;;12.22;94.65
28354;BME280;15603;50.878;8.036;2022-07-05T03:26:39;146127.41;;;12.11;94.43
28354;BME280;15603;50.878;8.036;2022-07-05T03:29:06;146168.78;;;12.28;94.27
28354;BME280;15603;50.878;8.036;2022-07-05T03:31:34;146146.88;;;12.19;94.57
28354;BME280;15603;50.878;8.036;2022-07-05T03:34:04;146083.59;;;11.92;94.75
28354;BME280;15603;50.878;8.036;2022-07-05T03:36:32;146110.38;;;12.04;93.30
28354;BME280;15603;50.878;8.036;2022-07-05T03:39:03;146122.56;;;12.09;94.15
28354;BME280;15603;50.878;8.036;2022-07-05T03:41:32;146145.66;;;12.18;94.25
28354;BME280;15603;50.878;8.036;2022-07-05T03:44:00;146149.28;;;12.20;93.37
28354;BME280;15603;50.878;8.036;2022-07-05T03:46:28;146116.44;;;12.06;92.54
28354;BME280;15603;50.878;8.036;2022-07-05T03:48:55;146156.59;;;12.23;93.95
28354;BME280;15603;50.878;8.036;2022-07-05T03:51:23;146154.19;;;12.22;93.84
28354;BME280;15603;50.878;8.036;2022-07-05T03:53:52;146148.06;;;12.20;93.04
28354;BME280;15603;50.878;8.036;2022-07-05T03:56:21;146139.56;;;12.16;94.35
28354;BME280;15603;50.878;8.036;2022-07-05T03:58:52;146139.56;;;12.16;94.86
28354;BME280;15603;50.878;8.036;2022-07-05T04:01:19;146148.06;;;12.20;94.35
28354;BME280;15603;50.878;8.036;2022-07-05T04:03:47;146155.41;;;12.23;93.82
28354;BME280;15603;50.878;8.036;2022-07-05T04:06:16;146120.09;;;12.08;93.86
28354;BME280;15603;50.878;8.036;2022-07-05T04:08:43;146124.97;;;12.10;93.44
28354;BME280;15603;50.878;8.036;2022-07-05T04:11:11;146155.41;;;12.23;93.83
28354;BME280;15603;50.878;8.036;2022-07-05T04:13:42;146142.00;;;12.17;94.34
28354;BME280;15603;50.878;8.036;2022-07-05T04:16:11;146061.63;;;11.83;95.14
28354;BME280;15603;50.878;8.036;2022-07-05T04:18:38;146095.78;;;11.97;94.76
28354;BME280;15603;50.878;8.036;2022-07-05T04:21:06;146195.56;;;12.40;94.42
28354;BME280;15603;50.878;8.036;2022-07-05T04:23:34;146146.88;;;12.19;93.24
28354;BME280;15603;50.878;8.036;2022-07-05T04:26:02;146235.69;;;12.56;92.38
28354;BME280;15603;50.878;8.036;2022-07-05T04:28:36;146263.72;;;12.68;92.64
28354;BME280;15603;50.878;8.036;2022-07-05T04:31:07;146245.47;;;12.61;92.17
28354;BME280;15603;50.878;8.036;2022-07-05T04:33:39;146239.34;;;12.58;92.82
28354;BME280;15603;50.878;8.036;2022-07-05T04:36:08;146172.44;;;12.30;92.86
28354;BME280;15603;50.878;8.036;2022-07-05T04:38:35;146273.44;;;12.72;92.72
28354;BME280;15603;50.878;8.036;2022-07-05T04:41:03;146302.66;;;12.85;91.85
28354;BME280;15603;50.878;8.036;2022-07-05T04:43:32;146351.34;;;13.05;90.94
28354;BME280;15603;50.878;8.036;2022-07-05T04:46:04;146362.28;;;13.10;89.98
28354;BME280;15603;50.878;8.036;2022-07-05T04:48:31;146374.50;;;13.15;89.84
28354;BME280;15603;50.878;8.036;2022-07-05T04:50:58;146395.16;;;13.24;90.60
28354;BME280;15603;50.878;8.036;2022-07-05T04:53:26;146412.28;;;13.31;89.82
28354;BME280;15603;50.878;8.036;2022-07-05T04:55:53;146375.69;;;13.15;91.68
28354;BME280;15603;50.878;8.036;2022-07-05T04:58:20;146404.91;;;13.28;92.13
28354;BME280;15603;50.878;8.036;2022-07-05T05:00:47;146469.53;;;13.55;89.90
28354;BME280;15603;50.878;8.036;2022-07-05T05:03:15;146476.81;;;13.58;88.37
28354;BME280;15603;50.878;8.036;2022-07-05T05:05:42;146502.41;;;13.69;88.71
28354;BME280;15603;50.878;8.036;2022-07-05T05:08:09;146495.09;;;13.66;88.86
28354;BME280;15603;50.878;8.036;2022-07-05T05:10:36;146526.75;;;13.79;88.15
28354;BME280;15603;50.878;8.036;2022-07-05T05:13:03;146517.00;;;13.75;87.82
28354;BME280;15603;50.878;8.036;2022-07-05T05:15:30;146541.38;;;13.85;88.00
28354;BME280;15603;50.878;8.036;2022-07-05T05:17:58;146607.19;;;14.13;86.39
28354;BME280;15603;50.878;8.036;2022-07-05T05:20:25;146610.84;;;14.14;86.28
28354;BME280;15603;50.878;8.036;2022-07-05T05:22:52;146619.34;;;14.18;85.39
28354;BME280;15603;50.878;8.036;2022-07-05T05:25:19;146647.41;;;14.30;84.69
28354;BME280;15603;50.878;8.036;2022-07-05T05:27:48;146685.16;;;14.46;84.64
28354;BME280;15603;50.878;8.036;2022-07-05T05:30:17;146724.19;;;14.62;83.81
28354;BME280;15603;50.878;8.036;2022-07-05T05:32:44;146716.91;;;14.59;83.82
28354;BME280;15603;50.878;8.036;2022-07-05T05:35:11;146755.88;;;14.76;83.37
28354;BME280;15603;50.878;8.036;2022-07-05T05:37:52;146763.19;;;14.79;83.70
28354;BME280;15603;50.878;8.036;2022-07-05T05:40:25;146819.25;;;15.02;82.34
28354;BME280;15603;50.878;8.036;2022-07-05T05:42:53;146830.25;;;15.07;82.65
28354;BME280;15603;50.878;8.036;2022-07-05T05:45:21;146833.88;;;15.08;82.13
28354;BME280;15603;50.878;8.036;2022-07-05T05:47:51;146824.13;;;15.04;82.69
28354;BME280;15603;50.878;8.036;2022-07-05T05:50:20;146902.16;;;15.37;81.23
28354;BME280;15603;50.878;8.036;2022-07-05T05:52:48;146833.88;;;15.08;82.23
28354;BME280;15603;50.878;8.036;2022-07-05T05:55:16;146929.00;;;15.48;81.92
28354;BME280;15603;50.878;8.036;2022-07-05T05:57:43;146992.47;;;15.75;79.44
28354;BME280;15603;50.878;8.036;2022-07-05T06:00:11;146986.34;;;15.73;78.98
28354;BME280;15603;50.878;8.036;2022-07-05T06:02:39;146999.81;;;15.78;79.99
28354;BME280;15603;50.878;8.036;2022-07-05T06:05:07;147073.00;;;16.09;77.34
28354;BME280;15603;50.878;8.036;2022-07-05T06:10:16;147053.44;;;16.01;78.64
28354;BME280;15603;50.878;8.036;2022-07-05T06:12:43;147124.22;;;16.31;77.90
28354;BME280;15603;50.878;8.036;2022-07-05T06:15:11;147131.53;;;16.34;78.40
28354;BME280;15603;50.878;8.036;2022-07-05T06:17:38;147160.84;;;16.46;77.53
28354;BME280;15603;50.878;8.036;2022-07-05T06:20:07;147209.63;;;16.66;75.57
28354;BME280;15603;50.878;8.036;2022-07-05T06:22:37;147187.69;;;16.57;75.97
28354;BME280;15603;50.878;8.036;2022-07-05T06:25:04;147275.59;;;16.94;75.80
28354;BME280;15603;50.878;8.036;2022-07-05T06:27:54;147284.16;;;16.98;73.93
28354;BME280;15603;50.878;8.036;2022-07-05T06:30:23;147282.88;;;16.97;74.98
28354;BME280;15603;50.878;8.036;2022-07-05T06:32:51;147285.34;;;16.98;74.34
28354;BME280;15603;50.878;8.036;2022-07-05T06:35:19;147326.84;;;17.16;72.54
28354;BME280;15603;50.878;8.036;2022-07-05T06:37:55;147357.38;;;17.29;73.74
28354;BME280;15603;50.878;8.036;2022-07-05T06:40:24;147385.47;;;17.40;73.21
28354;BME280;15603;50.878;8.036;2022-07-05T06:42:53;147439.22;;;17.63;72.20
28354;BME280;15603;50.878;8.036;2022-07-05T06:45:24;147383.00;;;17.39;72.44
28354;BME280;15603;50.878;8.036;2022-07-05T06:47:56;147409.88;;;17.51;71.23
28354;BME280;15603;50.878;8.036;2022-07-05T06:50:25;147502.72;;;17.90;69.96
28354;BME280;15603;50.878;8.036;2022-07-05T06:52:52;147478.25;;;17.79;69.76
28354;BME280;15603;50.878;8.036;2022-07-05T06:55:20;147517.41;;;17.96;69.63
28354;BME280;15603;50.878;8.036;2022-07-05T06:57:47;147524.72;;;17.99;69.25
28354;BME280;15603;50.878;8.036;2022-07-05T07:00:34;147554.06;;;18.11;68.87
28354;BME280;15603;50.878;8.036;2022-07-05T07:03:21;147661.53;;;18.56;67.45
28354;BME280;15603;50.878;8.036;2022-07-05T07:06:09;147693.31;;;18.70;66.00
28354;BME280;15603;50.878;8.036;2022-07-05T07:08:36;147618.78;;;18.38;66.98
28354;BME280;15603;50.878;8.036;2022-07-05T07:11:21;147656.66;;;18.54;66.51
28354;BME280;15603;50.878;8.036;2022-07-05T07:13:49;147688.44;;;18.68;66.32
28354;BME280;15603;50.878;8.036;2022-07-05T07:16:16;147742.25;;;18.90;65.98
28354;BME280;15603;50.878;8.036;2022-07-05T07:18:43;147690.84;;;18.69;64.74
28354;BME280;15603;50.878;8.036;2022-07-05T07:21:30;147798.47;;;19.14;64.20
28354;BME280;15603;50.878;8.036;2022-07-05T07:23:57;147835.13;;;19.29;62.73
28354;BME280;15603;50.878;8.036;2022-07-05T07:26:24;147875.47;;;19.46;62.74
28354;BME280;15603;50.878;8.036;2022-07-05T07:28:51;147798.47;;;19.14;63.24
28354;BME280;15603;50.878;8.036;2022-07-05T07:31:18;147864.44;;;19.41;63.28
28354;BME280;15603;50.878;8.036;2022-07-05T07:33:46;147864.44;;;19.41;63.30
28354;BME280;15603;50.878;8.036;2022-07-05T07:36:13;147869.34;;;19.43;63.38
28354;BME280;15603;50.878;8.036;2022-07-05T07:38:41;147908.47;;;19.60;63.42
28354;BME280;15603;50.878;8.036;2022-07-05T07:41:08;147932.91;;;19.70;62.71
28354;BME280;15603;50.878;8.036;2022-07-05T07:43:36;147952.56;;;19.78;62.85
28354;BME280;15603;50.878;8.036;2022-07-05T07:46:03;148028.34;;;20.10;62.15
28354;BME280;15603;50.878;8.036;2022-07-05T07:48:30;148051.59;;;20.20;62.22
28354;BME280;15603;50.878;8.036;2022-07-05T07:50:57;148062.63;;;20.25;63.37
28354;BME280;15603;50.878;8.036;2022-07-05T07:53:25;148101.75;;;20.41;61.17
28354;BME280;15603;50.878;8.036;2022-07-05T07:55:52;148115.19;;;20.47;60.70
28354;BME280;15603;50.878;8.036;2022-07-05T07:58:19;148104.19;;;20.42;60.87
28354;BME280;15603;50.878;8.036;2022-07-05T08:00:46;148139.66;;;20.57;61.30
28354;BME280;15603;50.878;8.036;2022-07-05T08:03:13;148115.19;;;20.47;60.80
28354;BME280;15603;50.878;8.036;2022-07-05T08:05:41;148140.91;;;20.57;61.33
28354;BME280;15603;50.878;8.036;2022-07-05T08:08:08;148148.25;;;20.61;61.63
28354;BME280;15603;50.878;8.036;2022-07-05T08:10:35;148136.00;;;20.55;61.20
28354;BME280;15603;50.878;8.036;2022-07-05T08:13:02;148189.84;;;20.78;61.35
28354;BME280;15603;50.878;8.036;2022-07-05T08:15:29;148233.91;;;20.96;61.72
28354;BME280;15603;50.878;8.036;2022-07-05T08:17:56;148295.09;;;21.22;62.58
28354;BME280;15603;50.878;8.036;2022-07-05T08:20:42;148317.13;;;21.31;59.38
28354;BME280;15603;50.878;8.036;2022-07-05T08:23:27;148382.03;;;21.59;60.03
28354;BME280;15603;50.878;8.036;2022-07-05T08:25:58;148412.66;;;21.71;59.95
28354;BME280;15603;50.878;8.036;2022-07-05T08:28:25;148495.91;;;22.06;57.92
28354;BME280;15603;50.878;8.036;2022-07-05T08:30:53;148551.03;;;22.29;57.78
28354;BME280;15603;50.878;8.036;2022-07-05T08:33:21;148528.94;;;22.20;56.92
28354;BME280;15603;50.878;8.036;2022-07-05T08:35:48;148500.78;;;22.08;56.19
28354;BME280;15603;50.878;8.036;2022-07-05T08:38:15;148581.69;;;22.42;55.94
28354;BME280;15603;50.878;8.036;2022-07-05T08:40:45;148647.78;;;22.70;58.34
28354;BME280;15603;50.878;8.036;2022-07-05T08:43:15;148694.34;;;22.89;56.49
28354;BME280;15603;50.878;8.036;2022-07-05T08:45:43;148564.53;;;22.35;55.92
28354;BME280;15603;50.878;8.036;2022-07-05T08:48:10;148618.41;;;22.58;55.43
28354;BME280;15603;50.878;8.036;2022-07-05T08:50:39;148682.06;;;22.84;54.93
28354;BME280;15603;50.878;8.036;2022-07-05T08:53:07;148721.28;;;23.01;56.18
28354;BME280;15603;50.878;8.036;2022-07-05T08:55:34;148718.81;;;23.00;54.75
28354;BME280;15603;50.878;8.036;2022-07-05T08:58:02;148792.38;;;23.30;54.24
28354;BME280;15603;50.878;8.036;2022-07-05T09:00:29;148856.09;;;23.57;53.93
28354;BME280;15603;50.878;8.036;2022-07-05T09:02:56;148959.13;;;24.00;52.52
28354;BME280;15603;50.878;8.036;2022-07-05T09:05:25;148973.81;;;24.06;51.77
28354;BME280;15603;50.878;8.036;2022-07-05T09:08:00;148826.72;;;23.45;52.83
28354;BME280;15603;50.878;8.036;2022-07-05T09:10:29;148726.25;;;23.03;54.43
28354;BME280;15603;50.878;8.036;2022-07-05T09:12:57;148638.00;;;22.66;55.29
28354;BME280;15603;50.878;8.036;2022-07-05T09:15:24;148601.25;;;22.50;55.48
28354;BME280;15603;50.878;8.036;2022-07-05T09:17:51;148591.47;;;22.46;55.95
28354;BME280;15603;50.878;8.036;2022-07-05T09:20:19;148495.91;;;22.06;56.68
28354;BME280;15603;50.878;8.036;2022-07-05T09:22:52;148544.94;;;22.27;56.71
28354;BME280;15603;50.878;8.036;2022-07-05T09:25:25;148569.41;;;22.37;56.20
28354;BME280;15603;50.878;8.036;2022-07-05T09:27:57;148706.59;;;22.94;56.23
28354;BME280;15603;50.878;8.036;2022-07-05T09:30:34;148766.69;;;23.20;52.68
28354;BME280;15603;50.878;8.036;2022-07-05T09:33:03;148785.06;;;23.27;51.52
28354;BME280;15603;50.878;8.036;2022-07-05T09:35:32;148724.97;;;23.02;51.79
28354;BME280;15603;50.878;8.036;2022-07-05T09:37:59;148553.47;;;22.30;52.32
28354;BME280;15603;50.878;8.036;2022-07-05T09:40:31;148526.53;;;22.19;53.31
28354;BME280;15603;50.878;8.036;2022-07-05T09:43:19;148491.00;;;22.04;54.10
28354;BME280;15603;50.878;8.036;2022-07-05T09:45:57;148439.59;;;21.83;54.39
28354;BME280;15603;50.878;8.036;2022-07-05T09:48:25;148400.41;;;21.66;55.45
28354;BME280;15603;50.878;8.036;2022-07-05T09:53:55;148562.06;;;22.34;54.45
28354;BME280;15603;50.878;8.036;2022-07-05T09:56:27;148663.69;;;22.77;49.78
28354;BME280;15603;50.878;8.036;2022-07-05T09:59:12;148777.69;;;23.24;47.90
28354;BME280;15603;50.878;8.036;2022-07-05T10:01:40;148688.22;;;22.87;47.74
28354;BME280;15603;50.878;8.036;2022-07-05T10:04:08;148682.06;;;22.84;47.81
28354;BME280;15603;50.878;8.036;2022-07-05T10:06:35;148641.69;;;22.67;48.58
28354;BME280;15603;50.878;8.036;2022-07-05T10:09:04;148597.56;;;22.49;47.52
28354;BME280;15603;50.878;8.036;2022-07-05T10:11:31;148593.91;;;22.47;47.90
28354;BME280;15603;50.878;8.036;2022-07-05T10:14:03;148531.41;;;22.21;47.78
28354;BME280;15603;50.878;8.036;2022-07-05T10:16:31;148597.56;;;22.49;47.67
28354;BME280;15603;50.878;8.036;2022-07-05T10:18:58;148694.34;;;22.89;46.37
28354;BME280;15603;50.878;8.036;2022-07-05T10:21:25;148748.28;;;23.12;44.59
28354;BME280;15603;50.878;8.036;2022-07-05T10:23:54;148794.84;;;23.31;44.87
28354;BME280;15603;50.878;8.036;2022-07-05T10:26:24;148777.69;;;23.24;45.57
28354;BME280;15603;50.878;8.036;2022-07-05T10:28:53;148672.28;;;22.80;46.29
28354;BME280;15603;50.878;8.036;2022-07-05T10:31:28;148565.72;;;22.35;46.22
28354;BME280;15603;50.878;8.036;2022-07-05T10:33:57;148581.69;;;22.42;46.64
28354;BME280;15603;50.878;8.036;2022-07-05T10:36:54;148679.66;;;22.83;45.65
28354;BME280;15603;50.878;8.036;2022-07-05T10:39:21;148711.50;;;22.97;45.12
28354;BME280;15603;50.878;8.036;2022-07-05T10:41:53;148810.75;;;23.38;45.33
28354;BME280;15603;50.878;8.036;2022-07-05T10:44:33;148728.72;;;23.04;45.15
28354;BME280;15603;50.878;8.036;2022-07-05T10:47:10;148684.53;;;22.85;46.25
28354;BME280;15603;50.878;8.036;2022-07-05T10:49:38;148776.47;;;23.24;48.67
28354;BME280;15603;50.878;8.036;2022-07-05T10:52:25;148865.91;;;23.61;45.51
28354;BME280;15603;50.878;8.036;2022-07-05T10:55:21;148851.19;;;23.55;44.85
28354;BME280;15603;50.878;8.036;2022-07-05T11:00:49;148883.06;;;23.68;41.02
28354;BME280;15603;50.878;8.036;2022-07-05T11:03:36;148874.47;;;23.65;39.88
28354;BME280;15603;50.878;8.036;2022-07-05T11:06:05;148842.63;;;23.51;42.02
28354;BME280;15603;50.878;8.036;2022-07-05T11:13:56;148859.78;;;23.59;41.18
28354;BME280;15603;50.878;8.036;2022-07-05T11:16:32;148954.22;;;23.98;39.75
28354;BME280;15603;50.878;8.036;2022-07-05T11:19:04;148914.97;;;23.82;41.44
28354;BME280;15603;50.878;8.036;2022-07-05T11:21:32;148808.31;;;23.37;42.79
28354;BME280;15603;50.878;8.036;2022-07-05T11:24:26;148677.19;;;22.82;45.19
28354;BME280;15603;50.878;8.036;2022-07-05T11:26:59;148713.94;;;22.98;45.56
28354;BME280;15603;50.878;8.036;2022-07-05T11:32:19;148832.81;;;23.47;42.17
28354;BME280;15603;50.878;8.036;2022-07-05T11:34:51;148907.59;;;23.79;41.07
28354;BME280;15603;50.878;8.036;2022-07-05T11:37:20;148954.22;;;23.98;38.99
28354;BME280;15603;50.878;8.036;2022-07-05T11:42:34;149062.06;;;24.43;40.52
28354;BME280;15603;50.878;8.036;2022-07-05T11:45:06;149130.78;;;24.72;40.18
28354;BME280;15603;50.878;8.036;2022-07-05T11:47:35;149076.78;;;24.49;39.83
28354;BME280;15603;50.878;8.036;2022-07-05T11:50:10;149160.22;;;24.84;41.63
28354;BME280;15603;50.878;8.036;2022-07-05T11:52:39;149225.25;;;25.12;41.62
28354;BME280;15603;50.878;8.036;2022-07-05T11:55:07;149152.88;;;24.81;39.58
28354;BME280;15603;50.878;8.036;2022-07-05T11:57:35;149157.78;;;24.83;39.68
28354;BME280;15603;50.878;8.036;2022-07-05T12:00:03;149042.47;;;24.35;40.16
28354;BME280;15603;50.878;8.036;2022-07-05T12:02:43;149062.06;;;24.43;38.88
28354;BME280;15603;50.878;8.036;2022-07-05T12:05:15;149003.22;;;24.19;37.30
28354;BME280;15603;50.878;8.036;2022-07-05T12:07:48;149015.50;;;24.24;36.79
28354;BME280;15603;50.878;8.036;2022-07-05T12:10:16;149091.53;;;24.56;37.20
28354;BME280;15603;50.878;8.036;2022-07-05T12:13:23;149096.47;;;24.58;37.75
28354;BME280;15603;50.878;8.036;2022-07-05T12:15:59;149038.78;;;24.34;38.12
28354;BME280;15603;50.878;8.036;2022-07-05T12:18:28;149098.91;;;24.59;36.95
28354;BME280;15603;50.878;8.036;2022-07-05T12:20:55;149005.69;;;24.20;36.11
28354;BME280;15603;50.878;8.036;2022-07-05T12:23:26;149000.78;;;24.18;37.80
28354;BME280;15603;50.878;8.036;2022-07-05T12:25:54;148992.22;;;24.14;37.70
28354;BME280;15603;50.878;8.036;2022-07-05T12:28:25;148941.94;;;23.93;37.10
28354;BME280;15603;50.878;8.036;2022-07-05T12:30:52;148994.63;;;24.15;37.17
28354;BME280;15603;50.878;8.036;2022-07-05T12:33:22;148946.84;;;23.95;37.03
28354;BME280;15603;50.878;8.036;2022-07-05T12:35:50;149069.44;;;24.46;37.98
28354;BME280;15603;50.878;8.036;2022-07-05T12:38:19;149143.06;;;24.77;36.89
28354;BME280;15603;50.878;8.036;2022-07-05T12:40:48;149098.91;;;24.59;37.92
28354;BME280;15603;50.878;8.036;2022-07-05T12:43:18;149170.06;;;24.88;36.61
28354;BME280;15603;50.878;8.036;2022-07-05T12:46:05;149199.47;;;25.01;37.76
28354;BME280;15603;50.878;8.036;2022-07-05T12:48:37;149182.28;;;24.94;35.63
28354;BME280;15603;50.878;8.036;2022-07-05T12:51:06;149161.47;;;24.85;35.95
28354;BME280;15603;50.878;8.036;2022-07-05T12:53:48;149123.41;;;24.69;36.09
28354;BME280;15603;50.878;8.036;2022-07-05T12:56:34;149092.78;;;24.56;35.85
28354;BME280;15603;50.878;8.036;2022-07-05T12:59:56;149178.59;;;24.92;36.22
28354;BME280;15603;50.878;8.036;2022-07-05T13:02:34;149179.84;;;24.93;35.52
28354;BME280;15603;50.878;8.036;2022-07-05T13:05:02;149194.56;;;24.99;35.45
28354;BME280;15603;50.878;8.036;2022-07-05T13:07:29;149143.06;;;24.77;35.52
28354;BME280;15603;50.878;8.036;2022-07-05T13:10:17;149189.66;;;24.97;36.07
28354;BME280;15603;50.878;8.036;2022-07-05T13:12:46;149248.53;;;25.21;36.37
28354;BME280;15603;50.878;8.036;2022-07-05T13:15:14;149243.66;;;25.19;34.26
28354;BME280;15603;50.878;8.036;2022-07-05T13:17:42;149242.38;;;25.19;33.47
28354;BME280;15603;50.878;8.036;2022-07-05T13:20:10;149260.81;;;25.26;34.56
28354;BME280;15603;50.878;8.036;2022-07-05T13:22:39;149192.09;;;24.98;36.94
28354;BME280;15603;50.878;8.036;2022-07-05T13:25:07;149111.19;;;24.64;37.34